Flight Information

DEPARTURE
EVERETT, WA
Elevation:
607
Runways:
16R/34L - 9010x150 - ASPH-CONC-G
16L/34R - 3004x75 - ASPH-G
11/29 - 4504x75 - ASPH-F
Tower:
132.95
DESTINATION
,
Elevation:
TPA:
1000 (est.)


6658.4 NM65° True-20° Var44° HDG

Flight Plan:
(click to file on line)

1. Type
2. Aircraft Identification
3. Aircraft Type / Special Equipment
4. True Airspeed
kts
5. Departure Airport
(ICAO code)
6. Arriving Airport
(ICAO code)
7. Cruising Altitude
ft
8. Alternate Airport
(ICAO code)
9. Route of Flight
10. Remarks


00:00:00 Departure ATIS: Destination ATIS:

Clearance Limit:
Route:
Altitude: Expect in minutes
Frequency:
Transponder: (7500 Hijack / 7600 Lost Comms / 7700 Emergency)


KPAE 010723Z AUTO 15006KT 10SM BKN014 OVC025 03/03 A3004 RMK AO2 T00330028 $
Time: 2020-04-01T07:23:00Z
1585727547
Winds: 150 @ 6 kts
Visibility: 10.0 sm
Clouds (AGL): BKN 1400
OVC 2500
Temperature: 3.3 C
Dew Point: 2.8 C
Pressure: 30.041338 in Hgbr


Notes:

Data extracted from FAA Digital Chart Supplement. Effective: 0901Z Thursday, Mar 26, 2020 to 0901Z Thursday, May 21, 2020
Current ATIS data is provided courtisy of PilotEdge.